Xin Dan Dong — BPBY — position and weather

sailwx.info

Track history (hours):
 
Tides and Currents Weather Stations Pressure Air Temp Water Temp Dewpoint Dewpoint Depression Visibility Wind Speed Wind Dir Waves Ship Positions

Xin Dan Dong

Last reported at 2016-Jul-29 09:33 UTC. Time now 2016-Jul-29 11:58 UTC.
Position N 24°04' E 118°37'.

Length 263 m; draft 12.1 m.

Type: Ship (hazmat cat A). MMSI: 413153000.

Date/timePositionNaut miles runAvg speedWind from/ knotsBaromVisibWave heightAir tempDewpointWater temp
2016-Jul-29 09:33N 24°04' E 118°37'1312.0
2016-Jul-29 08:30N 24°12' E 118°47'1111.9
2016-Jul-29 07:33N 24°20' E 118°56'1211.7
2016-Jul-29 06:32N 24°30' E 119°04'4611.6
2016-Jul-29 02:33N 25°12' E 119°25'1312.7
2016-Jul-29 01:32N 25°23' E 119°19'2 0.4
2016-Jul-28 19:16N 25°25' E 119°17'0 0.0
2016-Jul-28 17:08N 25°25' E 119°17'0 0.0
2016-Jul-28 14:32N 25°25' E 119°17'7 7.3
2016-Jul-28 13:32N 25°21' E 119°24'7 6.7
2016-Jul-28 12:33N 25°19' E 119°31'1411.7
2016-Jul-28 11:22N 25°12' E 119°45'1112.3
2016-Jul-28 10:30N 25°15' E 119°56'24711.8
2016-Jul-27 13:31N 28°34' E 122°40'1312.3
2016-Jul-27 12:27N 28°46' E 122°46'2812.1
2016-Jul-27 10:07N 29°12' E 122°60'26112.1
2016-Jul-26 12:30N 33°33' E 123°14'2411.9
2016-Jul-26 10:30N 33°56' E 123°14'13712.5
2016-Jul-25 23:32N 36°13' E 123°14'1412.2
2016-Jul-25 22:23N 36°27' E 123°14'3113.2
2016-Jul-25 20:04N 36°58' E 123°14'3513.7
2016-Jul-25 17:30N 37°33' E 123°13'1212.4
2016-Jul-25 16:33N 37°43' E 123°05'1212.1
2016-Jul-25 15:34N 37°51' E 122°54'1211.8
2016-Jul-25 14:33N 37°59' E 122°43'1211.6
2016-Jul-25 13:33N 38°07' E 122°32'1411.9
2016-Jul-25 12:21N 38°17' E 122°19'1112.3
2016-Jul-25 11:25N 38°25' E 122°08'1112.3
2016-Jul-25 10:32N 38°33' E 121°59'1211.9
2016-Jul-25 09:34N 38°44' E 121°55'1010.4
2016-Jul-25 08:34N 38°54' E 121°55'4 0.2
2016-Jul-24 15:16N 38°58' E 121°57'6 1.6
2016-Jul-24 11:32N 38°54' E 122°02'0 0.0
2016-Jul-24 08:17N 38°54' E 122°02'0 0.1
2016-Jul-24 07:32N 38°54' E 122°02'0 0.0
2016-Jul-24 06:26N 38°54' E 122°02'0 0.0
2016-Jul-24 05:29N 38°54' E 122°02'0 0.0
2016-Jul-24 04:32N 38°54' E 122°02'0 0.0
2016-Jul-24 03:23N 38°54' E 122°02'0 0.1
2016-Jul-24 02:11N 38°54' E 122°02'0 0.1
2016-Jul-23 23:32N 38°54' E 122°02'0 0.1
2016-Jul-23 22:18N 38°54' E 122°02'4 5.4
2016-Jul-23 21:34N 38°52' E 121°57'9 9.1
2016-Jul-23 20:34N 38°45' E 121°50'1212.3
2016-Jul-23 19:34N 38°35' E 121°42'1211.9
2016-Jul-23 18:32N 38°30' E 121°28'1312.7
2016-Jul-23 17:32N 38°28' E 121°12'1212.6
2016-Jul-23 16:33N 38°32' E 120°57'1110.7
2016-Jul-23 15:32N 38°41' E 120°48'2014.3
2016-Jul-23 14:08N 39°01' E 120°48'9610.0
2016-Jul-23 04:29N 40°16' E 122°06'0 0.0
2016-Jul-23 02:29N 40°16' E 122°06'0 0.0
2016-Jul-23 01:23N 40°16' E 122°06'0 0.0
2016-Jul-23 00:11N 40°16' E 122°06'0 0.0
2016-Jul-22 22:17N 40°16' E 122°06'0 0.0
2016-Jul-22 21:17N 40°16' E 122°06'0 0.0
2016-Jul-22 14:17N 40°16' E 122°06'0 0.0
2016-Jul-22 13:23N 40°16' E 122°06'0 0.0
2016-Jul-22 12:17N 40°16' E 122°06'0 0.0
2016-Jul-22 10:17N 40°16' E 122°06'0 0.0
2016-Jul-22 09:29N 40°16' E 122°06'0 0.0
2016-Jul-22 06:16N 40°16' E 122°06'0 0.0
2016-Jul-22 04:22N 40°16' E 122°06'0 0.0
2016-Jul-22 02:21N 40°16' E 122°06'2 3.1
2016-Jul-22 01:33N 40°18' E 122°03'110 6.1
2016-Jul-21 07:32N 38°40' E 120°56'1414.2
2016-Jul-21 06:33N 38°30' E 121°08'7013.5
2016-Jul-21 01:21N 37°55' E 122°26'5312.6
2016-Jul-20 21:09N 37°18' E 123°14'1114.5
2016-Jul-20 20:23N 37°07' E 123°14'1514.1
2016-Jul-20 19:20N 36°52' E 123°14'  
Track history (hours):
 
Tides and Currents Weather Stations Pressure Air Temp Water Temp Dewpoint Dewpoint Depression Visibility Wind Speed Wind Dir Waves Ship Positions

Xin Dan Dong

Last reported at 2016-Jul-29 09:33 UTC. Time now 2016-Jul-29 11:58 UTC.
Position N 24°04' E 118°37'.

Length 263 m; draft 12.1 m.

Type: Ship (hazmat cat A). MMSI: 413153000.

Date/timePositionNaut miles runAvg speedWind from/ knotsBaromVisibWave heightAir tempDewpointWater temp
2016-Jul-29 09:33N 24°04' E 118°37'1312.0
2016-Jul-29 08:30N 24°12' E 118°47'1111.9
2016-Jul-29 07:33N 24°20' E 118°56'1211.7
2016-Jul-29 06:32N 24°30' E 119°04'4611.6
2016-Jul-29 02:33N 25°12' E 119°25'1312.7
2016-Jul-29 01:32N 25°23' E 119°19'2 0.4
2016-Jul-28 19:16N 25°25' E 119°17'0 0.0
2016-Jul-28 17:08N 25°25' E 119°17'0 0.0
2016-Jul-28 14:32N 25°25' E 119°17'7 7.3
2016-Jul-28 13:32N 25°21' E 119°24'7 6.7
2016-Jul-28 12:33N 25°19' E 119°31'1411.7
2016-Jul-28 11:22N 25°12' E 119°45'1112.3
2016-Jul-28 10:30N 25°15' E 119°56'24711.8
2016-Jul-27 13:31N 28°34' E 122°40'1312.3
2016-Jul-27 12:27N 28°46' E 122°46'2812.1
2016-Jul-27 10:07N 29°12' E 122°60'26112.1
2016-Jul-26 12:30N 33°33' E 123°14'2411.9
2016-Jul-26 10:30N 33°56' E 123°14'13712.5
2016-Jul-25 23:32N 36°13' E 123°14'1412.2
2016-Jul-25 22:23N 36°27' E 123°14'3113.2
2016-Jul-25 20:04N 36°58' E 123°14'3513.7
2016-Jul-25 17:30N 37°33' E 123°13'1212.4
2016-Jul-25 16:33N 37°43' E 123°05'1212.1
2016-Jul-25 15:34N 37°51' E 122°54'1211.8
2016-Jul-25 14:33N 37°59' E 122°43'1211.6
2016-Jul-25 13:33N 38°07' E 122°32'1411.9
2016-Jul-25 12:21N 38°17' E 122°19'1112.3
2016-Jul-25 11:25N 38°25' E 122°08'1112.3
2016-Jul-25 10:32N 38°33' E 121°59'1211.9
2016-Jul-25 09:34N 38°44' E 121°55'1010.4
2016-Jul-25 08:34N 38°54' E 121°55'4 0.2
2016-Jul-24 15:16N 38°58' E 121°57'6 1.6
2016-Jul-24 11:32N 38°54' E 122°02'0 0.0
2016-Jul-24 08:17N 38°54' E 122°02'0 0.1
2016-Jul-24 07:32N 38°54' E 122°02'0 0.0
2016-Jul-24 06:26N 38°54' E 122°02'0 0.0
2016-Jul-24 05:29N 38°54' E 122°02'0 0.0
2016-Jul-24 04:32N 38°54' E 122°02'0 0.0
2016-Jul-24 03:23N 38°54' E 122°02'0 0.1
2016-Jul-24 02:11N 38°54' E 122°02'0 0.1
2016-Jul-23 23:32N 38°54' E 122°02'0 0.1
2016-Jul-23 22:18N 38°54' E 122°02'4 5.4
2016-Jul-23 21:34N 38°52' E 121°57'9 9.1
2016-Jul-23 20:34N 38°45' E 121°50'1212.3
2016-Jul-23 19:34N 38°35' E 121°42'1211.9
2016-Jul-23 18:32N 38°30' E 121°28'1312.7
2016-Jul-23 17:32N 38°28' E 121°12'1212.6
2016-Jul-23 16:33N 38°32' E 120°57'1110.7
2016-Jul-23 15:32N 38°41' E 120°48'2014.3
2016-Jul-23 14:08N 39°01' E 120°48'9610.0
2016-Jul-23 04:29N 40°16' E 122°06'0 0.0
2016-Jul-23 02:29N 40°16' E 122°06'0 0.0
2016-Jul-23 01:23N 40°16' E 122°06'0 0.0
2016-Jul-23 00:11N 40°16' E 122°06'0 0.0
2016-Jul-22 22:17N 40°16' E 122°06'0 0.0
2016-Jul-22 21:17N 40°16' E 122°06'0 0.0
2016-Jul-22 14:17N 40°16' E 122°06'0 0.0
2016-Jul-22 13:23N 40°16' E 122°06'0 0.0
2016-Jul-22 12:17N 40°16' E 122°06'0 0.0
2016-Jul-22 10:17N 40°16' E 122°06'0 0.0
2016-Jul-22 09:29N 40°16' E 122°06'0 0.0
2016-Jul-22 06:16N 40°16' E 122°06'0 0.0
2016-Jul-22 04:22N 40°16' E 122°06'0 0.0
2016-Jul-22 02:21N 40°16' E 122°06'2 3.1
2016-Jul-22 01:33N 40°18' E 122°03'110 6.1
2016-Jul-21 07:32N 38°40' E 120°56'1414.2
2016-Jul-21 06:33N 38°30' E 121°08'7013.5
2016-Jul-21 01:21N 37°55' E 122°26'5312.6
2016-Jul-20 21:09N 37°18' E 123°14'1114.5
2016-Jul-20 20:23N 37°07' E 123°14'1514.1
2016-Jul-20 19:20N 36°52' E 123°14'  

Dump ship's entire track history